Aérodrome d'Arcachon-La Teste-de-Buch

LFCH · Nouvelle-Aquitaine, Francja

6 października 2022

Czas Kod Pogoda Temp. Widoczność Sufit Wiatr METAR/SPECI
07:30
V
17 °C 10 km+ 3.000 ft 160° 160° 2 kt METAR LFBM 060530Z AUTO 16002KT 9999 // OVC030 17/15 Q1029
07:00
V
17 °C 10 km+ 3.000 ft Var 000° 0 kt METAR LFBM 060500Z AUTO 00000KT 9999 // OVC030 17/15 Q1029
06:30
V
17 °C 10 km+ 3.000 ft Var 000° 0 kt METAR LFBM 060430Z AUTO 00000KT 9999 // OVC030 17/15 Q1029
06:00
V
17 °C 10 km+ 3.100 ft Var Var 1 kt METAR LFBM 060400Z AUTO VRB01KT 9999 // OVC031 17/15 Q1029
05:30
V
17 °C 10 km+ 3.100 ft Var 000° 0 kt METAR LFBM 060330Z AUTO 00000KT 9999 // OVC031 17/15 Q1029
05:00
M
17 °C 10 km+ 2.900 ft Var Var 1 kt METAR LFBM 060300Z AUTO VRB01KT 9999 // FEW012 OVC029 17/15 Q1029
04:30
M
17 °C 10 km+ 2.900 ft 230° 230° 2 kt METAR LFBM 060230Z AUTO 23002KT 9999 // FEW022 OVC029 17/15 Q1029
04:00
V
17 °C 10 km+ 3.100 ft Var 000° 0 kt METAR LFBM 060200Z AUTO 00000KT 9999 // OVC031 17/15 Q1029
03:30
V
17 °C 10 km+ 3.100 ft Var 000° 0 kt METAR LFBM 060130Z AUTO 00000KT 9999 // FEW022 OVC031 17/15 Q1029
03:00
M
17 °C 10 km+ 2.900 ft Var 000° 0 kt METAR LFBM 060100Z AUTO 00000KT 9999 // FEW022 BKN029 OVC034 17/15 Q1029
02:30
M
16 °C 10 km+ 2.800 ft Var 000° 0 kt METAR LFBM 060030Z AUTO 00000KT 9999 // OVC028 16/14 Q1029
02:00
V
16 °C 10 km+ 3.000 ft Var 000° 0 kt METAR LFBM 060000Z AUTO 00000KT 9999 // BKN030 16/14 Q1029
01:30
V
16 °C 10 km+ 3.000 ft Var 000° 0 kt METAR LFBM 052330Z AUTO 00000KT 9999 // OVC030 16/14 Q1029
01:00
M
16 °C 10 km+ 2.900 ft Var Var 1 kt METAR LFBM 052300Z AUTO VRB01KT 9999 // BKN029 16/14 Q1029
00:30
M
16 °C 10 km+ 2.800 ft Var 000° 0 kt METAR LFBM 052230Z AUTO 00000KT 9999 // OVC028 16/14 Q1029
00:00
M
16 °C 10 km+ 2.800 ft Var 000° 0 kt METAR LFBM 052200Z AUTO 00000KT 9999 // BKN028 16/14 Q1029

5 października 2022

Czas Kod Pogoda Temp. Widoczność Sufit Wiatr METAR/SPECI
23:30
M
16 °C 10 km+ 2.600 ft 240° 240° 3 kt METAR LFBM 052130Z AUTO 24003KT 9999 // BKN026 16/14 Q1028
23:00
V
16 °C 10 km+ - 250° 250° 4 kt METAR LFBM 052100Z AUTO 25004KT 9999 // SCT024 16/14 Q1028
22:30
V
16 °C 10 km+ - 260° 260° 4 kt METAR LFBM 052030Z AUTO 26004KT 9999 // SCT023 16/14 Q1028
22:00
V
16 °C 10 km+ - 260° 260° 5 kt METAR LFBM 052000Z AUTO 26005KT 9999 // NSC 16/14 Q1027
21:30
V
16 °C 10 km+ - 280° 280° 6 kt METAR LFBM 051930Z AUTO 28006KT 9999 // FEW018 16/14 Q1027
21:00
V
17 °C 10 km+ - 290° 290° 9 kt METAR LFBM 051900Z AUTO 29009KT 9999 // FEW015 17/14 Q1026
20:30
M
18 °C 10 km+ 1.700 ft 290° 290° 8 kt METAR LFBM 051830Z AUTO 29008KT 9999 // BKN017 18/15 Q1025
20:00
V
19 °C 10 km+ - 290° 290° 11 kt METAR LFBM 051800Z AUTO 29011KT 9999 // FEW019 19/15 Q1025
19:30
V
20 °C 10 km+ - 290° 290° 11 kt METAR LFBM 051730Z AUTO 29011KT 9999 // NSC 20/14 Q1024
19:00
V
22 °C 10 km+ - 290° 290° 11 kt METAR LFBM 051700Z AUTO 29011KT 9999 // NSC 22/14 Q1023
18:30
V
24 °C 10 km+ - 300° 300° 13 kt METAR LFBM 051630Z AUTO 30013KT 9999 // NSC 24/14 Q1022
18:00
V
27 °C 10 km+ - 290° 290° 10 kt METAR LFBM 051600Z AUTO 29010KT 9999 // NSC 27/14 Q1022
17:30
V
28 °C 10 km+ - 290° 290° 6 kt METAR LFBM 051530Z AUTO 29006KT 260V330 9999 // NSC 28/14 Q1021
17:00
V
29 °C 10 km+ - 300° 300° 5 kt METAR LFBM 051500Z AUTO 30005KT 250V330 9999 // NSC 29/12 Q1021
16:30
V
29 °C 10 km+ - 250° 250° 3 kt METAR LFBM 051430Z AUTO 25003KT 200V330 9999 // NSC 29/11 Q1021
16:00
V
29 °C 10 km+ - Var Var 2 kt METAR LFBM 051400Z AUTO VRB02KT 9999 // NSC 29/11 Q1021
15:30
V
28 °C 10 km+ - Var Var 2 kt METAR LFBM 051330Z AUTO VRB02KT 9999 // NSC 28/11 Q1021
15:00
V
28 °C 10 km+ - 110° 110° 4 kt METAR LFBM 051300Z AUTO 11004KT 030V170 9999 // NSC 28/13 Q1021
14:30
V
27 °C 10 km+ - 120° 120° 3 kt METAR LFBM 051230Z AUTO 12003KT 060V210 9999 // NSC 27/13 Q1021
14:00
V
26 °C 10 km+ - 120° 120° 4 kt METAR LFBM 051200Z AUTO 12004KT 080V210 9999 // NSC 26/14 Q1021
13:30
V
25 °C 10 km+ - 110° 110° 5 kt METAR LFBM 051130Z AUTO 11005KT 080V170 9999 // NSC 25/14 Q1021
13:00
V
24 °C 10 km+ - 110° 110° 3 kt METAR LFBM 051100Z AUTO 11003KT 060V160 9999 // NSC 24/14 Q1021
12:30
V
23 °C 10 km+ - 110° 110° 3 kt METAR LFBM 051030Z AUTO 11003KT 050V180 9999 // NSC 23/14 Q1021
12:00
V
20 °C 10 km+ - 130° 130° 4 kt METAR LFBM 051000Z AUTO 13004KT 100V170 9999 // NSC 20/14 Q1021
11:30
V
18 °C 10 km+ - 100° 100° 3 kt METAR LFBM 050930Z AUTO 10003KT 060V160 9999 // NSC 18/14 Q1021
11:00
V
15 °C 10 km+ - Var Var 3 kt METAR LFBM 050900Z AUTO VRB03KT 9999 // NSC 15/13 Q1021
10:30
V
13 °C 10 km+ - 100° 100° 3 kt METAR LFBM 050830Z AUTO 10003KT 070V140 9999 // NSC 13/12 Q1021
10:00
L
12 °C 10 km+ 200 ft 090° 090° 4 kt METAR LFBM 050800Z AUTO 09004KT 060V130 9999 // BKN002 12/11 Q1021
09:30
L
10 °C 450 m - 090° 090° 3 kt METAR LFBM 050730Z AUTO 09003KT 060V130 3400 0450 R27/0650D // VV/// 10/10 Q1021
09:00
L
10 °C 10 km+ 200 ft Var Var 2 kt METAR LFBM 050700Z AUTO VRB02KT 9999 // BKN002 10/10 Q1021
08:30
L
10 °C 2,9 km - 070° 070° 3 kt METAR LFBM 050630Z AUTO 07003KT 2900 // VV/// 10/09 Q1021
08:00
L
10 °C 250 m - 070° 070° 4 kt METAR LFBM 050600Z AUTO 07004KT 0250 R27/0275N // VV/// 10/10 Q1021
07:30
L
11 °C 350 m - 070° 070° 1 kt METAR LFBM 050530Z AUTO 07001KT 0350 R27/0400N // VV/// 11/11 Q1021
07:00
L
11 °C 400 m - 070° 070° 2 kt METAR LFBM 050500Z AUTO 07002KT 0450 0400 R27/0650U // VV/// 11/11 Q1021
06:30
L
11 °C 300 m - 090° 090° 2 kt METAR LFBM 050430Z AUTO 09002KT 0300 R27/0275N // VV/// 11/11 Q1021
06:00
L
11 °C 500 m - 090° 090° 3 kt METAR LFBM 050400Z AUTO 09003KT 0500 R27/0450D // VV/// 11/11 Q1021
05:30
L
12 °C 500 m - Var 000° 0 kt METAR LFBM 050330Z AUTO 00000KT 0500 R27/0600N // VV/// 12/12 Q1021
05:00
L
12 °C 550 m - 280° 280° 3 kt METAR LFBM 050300Z AUTO 28003KT 0550 R27/0650D // VV/// 12/11 Q1021
04:30
L
12 °C 500 m - Var Var 2 kt METAR LFBM 050230Z AUTO VRB02KT 0500 R27/0600N // VV/// 12/12 Q1021
04:00
L
12 °C 200 m - Var 000° 0 kt METAR LFBM 050200Z AUTO 00000KT 0200 R27/0200N // VV/// 12/12 Q1021
03:30
L
12 °C 500 m - Var 000° 0 kt METAR LFBM 050130Z AUTO 00000KT 0500 R27/0600U // VV/// 12/12 Q1021
03:00
L
12 °C 350 m - Var 000° 0 kt METAR LFBM 050100Z AUTO 00000KT 0350 R27/0450N // VV/// 12/12 Q1021
02:30
V
11 °C 10 km+ - Var 000° 0 kt METAR LFBM 050030Z AUTO 00000KT 9999 // SCT003 11/10 Q1021
02:00
V
11 °C 10 km+ - 040° 040° 1 kt METAR LFBM 050000Z AUTO 04001KT 9999 // NSC 11/10 Q1021
01:30
V
11 °C 10 km+ - Var 000° 0 kt METAR LFBM 042330Z AUTO 00000KT 9999 // NSC 11/10 Q1022
01:00
V
12 °C 10 km+ - Var 000° 0 kt METAR LFBM 042300Z AUTO 00000KT 9999 // NSC 12/11 Q1022
00:30
V
13 °C 10 km+ - Var 000° 0 kt METAR LFBM 042230Z AUTO 00000KT 9999 // NSC 13/12 Q1022
00:00
V
13 °C 10 km+ - Var 000° 0 kt METAR LFBM 042200Z AUTO 00000KT 9999 // NSC 13/12 Q1022

4 października 2022

Czas Kod Pogoda Temp. Widoczność Sufit Wiatr METAR/SPECI
23:30
V
13 °C 10 km+ - 070° 070° 2 kt METAR LFBM 042130Z AUTO 07002KT 9999 // NSC 13/12 Q1022
23:00
V
14 °C 10 km+ - Var 000° 0 kt METAR LFBM 042100Z AUTO 00000KT 9999 // NSC 14/13 Q1022
22:30
V
15 °C 10 km+ - Var 000° 0 kt METAR LFBM 042030Z AUTO 00000KT 9999 // NSC 15/13 Q1022
22:00
V
16 °C 10 km+ - Var Var 1 kt METAR LFBM 042000Z AUTO VRB01KT 9999 // NSC 16/13 Q1022
21:30
V
16 °C 10 km+ - Var 000° 0 kt METAR LFBM 041930Z AUTO 00000KT 9999 // NSC 16/13 Q1021
21:00
V
17 °C 10 km+ - Var 000° 0 kt METAR LFBM 041900Z AUTO 00000KT 9999 // NSC 17/13 Q1021
20:30
V
18 °C 10 km+ - Var 000° 0 kt METAR LFBM 041830Z AUTO 00000KT 9999 // NSC 18/13 Q1021
20:00
V
21 °C 10 km+ - 280° 280° 1 kt METAR LFBM 041800Z AUTO 28001KT 9999 // NSC 21/12 Q1021
19:30
V
23 °C 10 km+ - 270° 270° 3 kt METAR LFBM 041730Z AUTO 27003KT 9999 // NSC 23/12 Q1021
19:00
V
25 °C 10 km+ - 270° 270° 3 kt METAR LFBM 041700Z AUTO 27003KT 9999 // NSC 25/13 Q1021
18:30
V
26 °C 10 km+ - Var Var 3 kt METAR LFBM 041630Z AUTO VRB03KT 9999 // NSC 26/12 Q1020
18:00
V
26 °C 10 km+ - 290° 290° 4 kt METAR LFBM 041600Z AUTO 29004KT 250V330 9999 // NSC 26/12 Q1021
17:30
V
26 °C 10 km+ - 240° 240° 4 kt METAR LFBM 041530Z AUTO 24004KT 190V310 9999 // NSC 26/12 Q1021
17:00
V
26 °C 10 km+ - 320° 320° 4 kt METAR LFBM 041500Z AUTO 32004KT 270V010 9999 // NSC 26/12 Q1020
16:30
V
26 °C 10 km+ - Var Var 2 kt METAR LFBM 041430Z AUTO VRB02KT 9999 // NSC 26/12 Q1021
16:00
V
26 °C 10 km+ - Var Var 3 kt METAR LFBM 041400Z AUTO VRB03KT 9999 // NSC 26/13 Q1020
15:30
V
25 °C 10 km+ - 260° 260° 4 kt METAR LFBM 041330Z AUTO 26004KT 180V330 9999 // NSC 25/13 Q1021
15:00
V
25 °C 10 km+ - 210° 210° 4 kt METAR LFBM 041300Z AUTO 21004KT 160V270 9999 // NSC 25/13 Q1021
14:30
V
25 °C 10 km+ - Var Var 3 kt METAR LFBM 041230Z AUTO VRB03KT 9999 // NSC 25/14 Q1021
14:00
V
23 °C 10 km+ - Var Var 1 kt METAR LFBM 041200Z AUTO VRB01KT 9999 // NSC 23/14 Q1021
13:30
V
22 °C 10 km+ - Var Var 2 kt METAR LFBM 041130Z AUTO VRB02KT 9999 // NSC 22/14 Q1022
13:00
V
20 °C 10 km+ - Var 000° 0 kt METAR LFBM 041100Z AUTO 00000KT 9999 // NSC 20/14 Q1022
12:30
V
18 °C 10 km+ - Var Var 1 kt METAR LFBM 041030Z AUTO VRB01KT 9999 // NSC 18/15 Q1022
12:00
L
15 °C 10 km+ 300 ft Var 000° 0 kt METAR LFBM 041000Z AUTO 00000KT 9999 // BKN003 15/15 Q1022
11:30
L
14 °C 500 m - Var 000° 0 kt METAR LFBM 040930Z AUTO 00000KT 0500 R27/0650D // VV/// 14/14 Q1022
11:00
L
13 °C 550 m - Var 000° 0 kt METAR LFBM 040900Z AUTO 00000KT 0550 R27/1000U // VV/// 13/13 Q1022
10:30
L
12 °C 500 m - Var 000° 0 kt METAR LFBM 040830Z AUTO 00000KT 0500 R27/0700U // VV/// 12/12 Q1022
10:00
L
12 °C 450 m - Var 000° 0 kt METAR LFBM 040800Z AUTO 00000KT 0450 R27/0650N // VV/// 12/12 Q1022
09:30
L
11 °C 350 m - Var Var 1 kt METAR LFBM 040730Z AUTO VRB01KT 0350 R27/0450N // VV/// 11/11 Q1021
09:00
L
10 °C 500 m - 070° 070° 2 kt METAR LFBM 040700Z AUTO 07002KT 0550 0500 R27/0500D // VV/// 10/10 Q1021
08:30
L
9 °C 200 m - Var 000° 0 kt METAR LFBM 040630Z AUTO 00000KT 0200 R27/M0200N // VV/// 09/09 Q1021
08:00
L
9 °C 200 m - 100° 100° 2 kt METAR LFBM 040600Z AUTO 10002KT 0200 R27/0250N // VV/// 09/09 Q1021
07:30
L
9 °C 10 km+ 200 ft Var 000° 0 kt METAR LFBM 040530Z AUTO 00000KT 9999 // OVC002 09/08 Q1021
07:00
V
7 °C 10 km+ - 070° 070° 2 kt METAR LFBM 040500Z AUTO 07002KT 9999 // SCT002 07/07 Q1021
06:30
V
8 °C 10 km+ - Var 000° 0 kt METAR LFBM 040430Z AUTO 00000KT 9999 // FEW001 08/08 Q1020
06:00
L
9 °C 10 km+ - Var 000° 0 kt METAR LFBM 040400Z AUTO 00000KT 9999 // VV/// 09/08 Q1020
05:30
L
9 °C 1,1 km - Var 000° 0 kt METAR LFBM 040330Z AUTO 00000KT 2000 1100 R27/1400D // FEW003 09/09 Q1020
05:00
L
9 °C 10 km+ - 040° 040° 1 kt METAR LFBM 040300Z AUTO 04001KT 9999 // VV/// 09/08 Q1020
Starsze dane

My i osoby trzecie śledzimy twoje zachowanie w internecie na naszej stronie za pomocą plików cookie. Jeśli kontynuujesz, zakładamy, że zgadzasz się z naszą polityką plików cookie. Dowiedz się więcej